Los datos mostrados corresponden al resumen diario obtenido de los registros semihorarios entre las 0:00 y las 24:00 h, en horario solar.
| Estación | Fecha | V Km/h | DV | Vx Km/h | T ºC | Tn ºC | Tx ºC | H frío | HR % | Rad MJ/m2 día | H sol | P mm | ETo mm |
|---|---|---|---|---|---|---|---|---|---|---|---|---|---|
| Almoradí | 31/08/2026 | 3.31 | NE | 12.45 | 25.65 | 18.68 | 31.48 | 0 | 74.6 | 22.65 | 11.05 | 0 | 4.52 |
| Elx | 31/08/2026 | 3.83 | N | 19 | 26.13 | 18.45 | 31.43 | 0 | 63.33 | 24.04 | 11.19 | 0 | 4.81 |
| Callosa d'En Sarrià | 31/08/2026 | 1.36 | N | 12.35 | 24.05 | 17.67 | 29.53 | 0 | 68.27 | 23.81 | 11.02 | 0 | 4.17 |
| Callosa d'En Sarrià (malla) | 31/08/2026 | 0.9 | E | 8.4 | 24.87 | 18.24 | 31.45 | 0 | 51.43 | 19.69 | 10.22 | 0 | 3.54 |
| Catral | 31/08/2026 | 2.22 | E | 13.65 | 24.83 | 16.15 | 32.28 | 0 | 68.98 | 21.32 | 9.93 | 0 | 4.09 |
| Altea | 31/08/2026 | 4.86 | NE | 16.37 | 24.73 | 19.56 | 28.69 | 0 | 69.08 | 23.71 | 11.43 | 0 | 4.67 |
| Planes | 31/08/2026 | 2.55 | E | 16.37 | 23.73 | 14.38 | 33.03 | 0 | 56.49 | 25.9 | 11.36 | 0 | 4.76 |
| Villena | 31/08/2026 | 4.96 | S | 20.18 | 23.25 | 12.29 | 32.96 | 0 | 55.23 | 25.41 | 11.34 | 0 | 5.44 |
| Camp de Mirra | 31/08/2026 | 4.52 | N | 18.24 | 24.01 | 14.56 | 32.98 | 0 | 51.55 | 24.94 | 11.56 | 0 | 5.24 |
| Agost | 31/08/2026 | 3.64 | E | 16.19 | 24.45 | 15.86 | 30.77 | 0 | 52.35 | 23.51 | 11.31 | 0 | 4.62 |
| Orihuela - La Murada | 31/08/2026 | 3.96 | NE | 15.7 | 25.07 | 16.98 | 32.63 | 0 | 62.28 | 23.69 | 11.5 | 0 | 4.87 |
| Villajoyosa | 31/08/2026 | 2.76 | S | 13.33 | 25.12 | 18.7 | 30.48 | 0 | 58.03 | 24.1 | 11.43 | 0 | 4.53 |
| Ondara | 31/08/2026 | 3.06 | SE | 15.35 | 25.2 | 17.6 | 33.1 | 0 | 68.48 | 23.99 | 11.42 | 0 | 4.7 |
| Dénia | 31/08/2026 | 2.64 | S | 14.85 | 23.84 | 15.37 | 32.06 | 0 | 71.87 | 22.39 | 11.26 | 0 | 4.26 |
| Pinoso | 31/08/2026 | 5.24 | NE | 18.77 | 24.28 | 15.7 | 33.1 | 0 | 45.46 | 25.11 | 11.57 | 0 | 5.5 |
| Monforte del Cid | 31/08/2026 | 4.75 | E | 21.1 | 23.92 | 14.37 | 31.79 | 0 | 59.97 | 24.43 | 11.49 | 0 | 5.04 |
| Crevillent | 31/08/2026 | 3.13 | E | 13.44 | 26.21 | 19.53 | 32.08 | 0 | 58.73 | 23.2 | 10.87 | 0 | 4.66 |
| Vall d'Uixó | 30/08/2026 | 3.25 | N | 12.1 | 25.07 | 18.28 | 32.32 | 0 | 58.58 | 24.3 | 11.12 | 0 | 4.78 |
| Vila-real EEA | 31/08/2026 | 6.78 | N | 19.28 | 26.29 | 21.05 | 30.85 | 0 | 69.48 | 21.24 | 11.19 | 0 | 4.68 |
| Onda | 31/08/2026 | 4.75 | N | 20.36 | 24.79 | 19.4 | 29.88 | 0 | 70.4 | 21.4 | 11.29 | 0 | 4.31 |
| Vila-Real | 31/08/2026 | 6.42 | N | 21.84 | 25.73 | 21.46 | 29.71 | 0 | 71.3 | 21.96 | 11.38 | 0 | 4.62 |
| San Rafael del Río | 31/08/2026 | 4.4 | NE | 18.87 | 24 | 18.02 | 30.59 | 0 | 74.6 | 21.12 | 11.34 | 0 | 4.3 |
| Castelló de la Plana | 31/08/2026 | 3.12 | NO | 15.03 | 24.82 | 19.53 | 30.97 | 0 | 73.6 | 20.35 | 11.38 | 0 | 4.03 |
| Ribera de Cabanes | 31/08/2026 | 4.4 | NO | 19.44 | 25.49 | 20.64 | 30.42 | 0 | 35.85 | 22.59 | 11.29 | 0 | 4.95 |
| Nules | 31/08/2026 | 6.13 | NE | 22.54 | 25.4 | 20.52 | 30.03 | 0 | 74.9 | 20.19 | 11.24 | 0 | 4.29 |
| Segorbe | 31/08/2026 | 2.49 | SE | 13.76 | 23.16 | 13.09 | 32.16 | 0 | 67.38 | 23.11 | 11.31 | 0 | 4.29 |
| Pedralba | 31/08/2026 | 3.28 | SE | 19.37 | 24.11 | 16.63 | 31.63 | 0 | 64.34 | 22.36 | 11.04 | 0 | 4.41 |
| Benavites | 31/08/2026 | 3.94 | NE | 19.79 | 23.47 | 17.98 | 29.02 | 0 | 84 | 21.63 | 11.3 | 0 | 3.94 |
| Moncada | 31/08/2026 | 6.59 | N | 30.42 | 24.94 | 17.44 | 30.31 | 0 | 75.26 | 24.06 | 11.32 | 0 | 4.78 |
| Carcaixent | 31/08/2026 | 3.71 | N | 15.68 | 26.09 | 19.12 | 32.39 | 0 | 67.65 | 23.36 | 10.9 | 0 | 4.74 |
| Carlet | 31/08/2026 | 4.23 | N | 18.43 | 25.88 | 18.66 | 31.36 | 0 | 68.81 | 21.29 | 11.22 | 0 | 4.42 |
| Llutxent | 31/08/2026 | 5.93 | N | 23.85 | 24.33 | 18.25 | 30.3 | 0 | 78.26 | 22.66 | 11.13 | 0 | 4.6 |
| Requena | 31/08/2026 | 5.86 | N | 24.53 | 24.22 | 14.97 | 33.14 | 0 | 56.68 | 25.36 | 11.27 | 0 | 5.59 |
| Algimia de Alfara | 31/08/2026 | 3.88 | E | 23.36 | 23.82 | 15.26 | 29.87 | 0 | 74.1 | 23.35 | 11.49 | 0 | 4.45 |
| Valencia - UPV | 31/08/2026 | 4.44 | NE | 18.42 | 25.67 | 20.56 | 29.12 | 0 | 75.68 | 20.39 | 11.3 | 0 | 4.1 |
| Algemesí | 31/08/2026 | 4.28 | NE | 15.77 | 25.2 | 20.19 | 29.83 | 0 | 80.1 | 20.84 | 11.28 | 0 | 4.15 |
| Picassent | 31/08/2026 | 2.92 | NE | 17.07 | 24.5 | 18.41 | 30.12 | 0 | 81.2 | 21.07 | 11.25 | 0 | 4.02 |
| Montesa | 31/08/2026 | 2.48 | NE | 14.96 | 24.96 | 17.45 | 31.87 | 0 | 65.95 | 22.61 | 10.82 | 0 | 4.33 |
| Xàtiva | 31/08/2026 | 3.08 | N | 14.75 | 25.34 | 16.75 | 32.89 | 0 | 70.2 | 23.37 | 11.45 | 0 | 4.56 |
| Llíria | 31/08/2026 | 3.64 | E | 23.11 | 24.25 | 15.26 | 32.49 | 0 | 67.15 | 22.98 | 11.55 | 0 | 4.58 |
| Sagunt | 31/08/2026 | 6.08 | N | 21.17 | 25.63 | 20.02 | 30.03 | 0 | 71 | 21.51 | 11.31 | 0 | 4.54 |
| Campo Arcís | 31/08/2026 | 5.63 | E | 22.51 | 23.64 | 14.23 | 32.98 | 0 | 59.09 | 24.81 | 11.3 | 0 | 5.47 |
| Villalonga | 31/08/2026 | 3.01 | NO | 14.32 | 25.29 | 18.14 | 31.66 | 0 | 68.21 | 22.61 | 11.36 | 0 | 4.42 |
| Gandía | 31/08/2026 | 2.81 | N | 14.11 | 24.92 | 17.21 | 30.9 | 0 | 78.2 | 21.59 | 11.18 | 0 | 4.15 |
| Bolbaite | 31/08/2026 | 3.72 | NE | 15.88 | 24.37 | 16.57 | 31.24 | 0 | 72.2 | 21.87 | 11.33 | 0 | 4.34 |
| Bétera | 31/08/2026 | 6.33 | E | 28.15 | 24.28 | 17.08 | 30.33 | 0 | 72.6 | 23.79 | 11.52 | 0 | 4.88 |
| Chulilla | 31/08/2026 | 3.81 | E | 19.12 | 23.64 | 15.08 | 30.58 | 0 | 61.47 | 23.84 | 11.56 | 0 | 4.61 |
| Godelleta | 31/08/2026 | 2.94 | E | 15.52 | 24.31 | 16.49 | 30.61 | 0 | 75.28 | 22.28 | 11.16 | 0 | 4.23 |
| Bèlgida | 31/08/2026 | 3.46 | NE | 15.84 | 24.54 | 17.73 | 32.96 | 0 | 80 | 21.93 | 10.76 | 0 | 4.45 |
| Polinyà de Xúquer | 31/08/2026 | 3.11 | NE | 14.11 | 25.53 | 20.67 | 30.67 | 0 | 78.2 | 22.16 | 11.24 | 0 | 4.32 |
| Benifaió | 31/08/2026 | 3.01 | NE | 16.9 | 25.53 | 19.23 | 30.62 | 0 | 80.5 | 22.21 | 11.25 | 0 | 4.25 |
| Cheste | 31/08/2026 | 1.67 | SE | 14.92 | 23.21 | 14.3 | 32.01 | 0 | 69.38 | 23.26 | 11.22 | 0 | 4.14 |
| Tavernes de la Valldigna | 31/08/2026 | 3.77 | SE | 16.83 | 26 | 20.38 | 30.15 | 0 | 82.9 | 21.78 | 11.06 | 0 | 4.31 |
| Castelló | 31/08/2026 | 3.87 | NE | 16.26 | 25.41 | 18.41 | 31.27 | 0 | 77.6 | 16.26 | 8.5 | 0 | 3.57 |
© Copyright 2011, Instituto Valenciano de Investigaciones Agrarias.
Los datos meteorológicos ofrecidos es esta página son informativos, por lo que carecen de carácter oficial. Los datos son publicados automáticamente y, por lo tanto, pueden no estar sujetos a una completa validación.
|
Cargando ...espere por favor... |